createdAt,value
2019-04-01T00:01:07.726Z,23.92
2019-04-01T00:05:13.453Z,21.45
2019-04-01T00:09:18.365Z,28.47
2019-04-01T00:13:23.761Z,23.70
2019-04-01T00:17:28.657Z,19.85
2019-04-01T00:21:33.799Z,26.87
2019-04-01T00:25:38.716Z,22.95
2019-04-01T00:29:43.681Z,23.52
2019-04-01T00:33:48.937Z,25.08
2019-04-01T00:37:53.873Z,22.80
2019-04-01T00:42:11.156Z,21.77
2019-04-01T00:46:17.301Z,21.62
2019-04-01T00:50:22.266Z,22.40
2019-04-01T00:54:27.086Z,23.90
2019-04-01T00:58:32.007Z,24.70
2019-04-01T01:02:37.263Z,27.30
2019-04-01T01:06:44.422Z,24.57
2019-04-01T01:10:49.370Z,23.35
2019-04-01T01:14:54.282Z,22.17
2019-04-01T01:18:59.133Z,28.38
2019-04-01T01:23:04.209Z,25.90
2019-04-01T01:27:09.131Z,24.18
2019-04-01T01:31:14.229Z,23.18
2019-04-01T01:35:19.085Z,25.52
2019-04-01T01:39:24.046Z,23.65
2019-04-01T01:43:28.998Z,24.52
2019-04-01T01:47:33.977Z,22.37
2019-04-01T01:51:42.096Z,20.52
2019-04-01T01:55:46.963Z,23.57
2019-04-01T01:59:51.863Z,23.12
2019-04-01T02:03:57.302Z,22.65
2019-04-01T02:08:02.230Z,24.25
2019-04-01T02:12:07.230Z,26.35
2019-04-01T02:16:12.027Z,26.75
2019-04-01T02:20:16.923Z,24.80
2019-04-01T02:24:21.959Z,26.57
2019-04-01T02:28:26.883Z,25.10
2019-04-01T02:32:32.032Z,25.70
2019-04-01T02:36:36.825Z,29.00
2019-04-01T02:40:41.783Z,28.45
2019-04-01T02:44:46.910Z,28.77
2019-04-01T02:48:51.886Z,27.60
2019-04-01T02:52:57.232Z,30.30
2019-04-01T02:57:02.258Z,27.93
2019-04-01T03:01:08.484Z,28.35
2019-04-01T03:05:13.470Z,29.57
2019-04-01T03:09:18.328Z,28.55
2019-04-01T03:13:23.508Z,29.37
2019-04-01T03:17:28.448Z,27.85
2019-04-01T03:21:33.977Z,34.18
2019-04-01T03:25:38.982Z,31.42
2019-04-01T03:29:43.891Z,31.37
2019-04-01T03:33:48.902Z,31.95
2019-04-01T03:37:53.826Z,34.70
2019-04-01T03:41:58.929Z,34.50
2019-04-01T03:46:03.947Z,31.45
2019-04-01T03:50:10.422Z,35.33
2019-04-01T03:54:15.580Z,36.17
2019-04-01T03:58:20.496Z,36.55
2019-04-01T04:02:25.728Z,36.73
2019-04-01T04:06:30.571Z,36.75
2019-04-01T04:10:35.646Z,38.50
2019-04-01T04:14:40.936Z,38.13
2019-04-01T04:18:46.271Z,43.33
2019-04-01T04:22:51.456Z,44.63
2019-04-01T04:26:56.414Z,48.33
2019-04-01T04:31:02.568Z,50.45
2019-04-01T04:35:07.794Z,48.38
2019-04-01T04:39:12.823Z,56.05
2019-04-01T04:43:18.139Z,58.95
2019-04-01T04:47:23.077Z,64.10
2019-04-01T04:51:28.355Z,64.85
2019-04-01T04:55:33.411Z,65.75
2019-04-01T04:59:40.681Z,65.42
2019-04-01T05:03:45.924Z,71.33
2019-04-01T05:07:51.055Z,64.12
2019-04-01T05:11:56.153Z,68.92
2019-04-01T05:16:01.496Z,66.50
2019-04-01T05:20:07.665Z,66.57
2019-04-01T05:24:13.166Z,63.90
2019-04-01T05:28:19.517Z,66.77
2019-04-01T05:32:27.416Z,64.15
2019-04-01T05:36:33.026Z,64.42
2019-04-01T05:40:37.930Z,70.37
2019-04-01T05:44:42.929Z,63.05
2019-04-01T05:48:48.028Z,68.90
2019-04-01T05:52:53.153Z,68.40
2019-04-01T05:56:58.120Z,72.58
2019-04-01T06:01:10.887Z,69.92
2019-04-01T06:05:15.752Z,71.85
2019-04-01T06:09:20.556Z,64.55
2019-04-01T06:13:25.431Z,61.15
2019-04-01T06:17:30.648Z,67.67
2019-04-01T06:21:36.150Z,62.93
2019-04-01T06:25:41.569Z,56.80
2019-04-01T06:29:46.594Z,62.83
2019-04-01T06:33:51.412Z,62.13
2019-04-01T06:37:56.315Z,64.92
2019-04-01T06:42:01.124Z,60.33
2019-04-01T06:46:06.016Z,57.73
2019-04-01T06:50:11.202Z,64.25
2019-04-01T06:54:16.048Z,64.15
2019-04-01T06:58:20.939Z,65.85
2019-04-01T07:02:26.058Z,61.00
2019-04-01T07:06:30.871Z,57.23
2019-04-01T07:10:36.828Z,58.15
2019-04-01T07:14:41.717Z,64.37
2019-04-01T07:18:46.609Z,61.13
2019-04-01T07:22:51.477Z,61.58
2019-04-01T07:26:56.379Z,57.58
2019-04-01T07:31:01.466Z,55.28
2019-04-01T07:35:06.651Z,55.20
2019-04-01T07:39:11.527Z,57.23
2019-04-01T07:43:16.420Z,63.48
2019-04-01T07:47:22.372Z,54.60
2019-04-01T07:51:27.279Z,55.85
2019-04-01T07:55:33.173Z,56.42
2019-04-01T07:59:38.048Z,58.50
2019-04-01T08:03:42.979Z,56.53
2019-04-01T08:07:47.863Z,55.00
2019-04-01T08:11:52.765Z,48.23
2019-04-01T08:15:57.654Z,44.40
2019-04-01T08:20:05.775Z,46.90
2019-04-01T08:24:10.676Z,46.98
2019-04-01T08:28:15.557Z,41.88
2019-04-01T08:32:20.604Z,43.98
2019-04-01T08:36:25.476Z,48.10
2019-04-01T08:40:30.212Z,43.50
2019-04-01T08:44:35.105Z,46.02
2019-04-01T08:48:39.988Z,47.43
2019-04-01T08:52:45.305Z,44.88
2019-04-01T08:56:50.472Z,42.58
2019-04-01T09:00:55.991Z,40.00
2019-04-01T09:05:00.728Z,45.58
2019-04-01T09:09:07.848Z,46.23
2019-04-01T09:13:16.361Z,46.10
2019-04-01T09:17:22.035Z,48.87
2019-04-01T09:21:26.856Z,46.70
2019-04-01T09:25:31.599Z,50.67
2019-04-01T09:29:36.414Z,44.05
2019-04-01T09:33:41.561Z,45.95
2019-04-01T09:37:46.606Z,48.70
2019-04-01T09:41:51.834Z,45.98
2019-04-01T09:45:56.744Z,47.08
2019-04-01T09:50:01.551Z,43.65
2019-04-01T09:54:06.570Z,48.80
2019-04-01T09:58:11.552Z,43.40
2019-04-01T10:02:30.855Z,46.02
2019-04-01T10:06:23.618Z,45.85
2019-04-01T10:10:28.420Z,47.83
2019-04-01T10:14:33.243Z,44.45
2019-04-01T10:18:38.136Z,45.28
2019-04-01T10:22:43.027Z,59.40
2019-04-01T10:26:47.844Z,47.03
2019-04-01T10:30:52.735Z,43.73
2019-04-01T10:34:57.650Z,43.60
2019-04-01T10:39:02.457Z,44.80
2019-04-01T10:43:08.344Z,44.58
2019-04-01T10:47:13.209Z,41.05
2019-04-01T10:51:18.208Z,44.48
2019-04-01T10:55:23.138Z,42.33
2019-04-01T10:59:28.071Z,45.58
2019-04-01T11:03:33.037Z,42.60
2019-04-01T11:07:38.112Z,41.53
2019-04-01T11:11:43.044Z,45.17
2019-04-01T11:15:48.139Z,43.33
2019-04-01T11:19:54.253Z,41.53
2019-04-01T11:23:59.144Z,43.08
2019-04-01T11:28:04.348Z,40.48
2019-04-01T11:32:13.183Z,41.45
2019-04-01T11:36:16.864Z,39.33
2019-04-01T11:40:21.745Z,37.73
2019-04-01T11:44:26.671Z,40.88
2019-04-01T11:48:31.788Z,41.75
2019-04-01T11:52:38.074Z,42.58
2019-04-01T11:56:43.025Z,39.18
2019-04-01T12:00:47.780Z,39.20
2019-04-01T12:04:53.013Z,34.53
2019-04-01T12:08:58.885Z,38.70
2019-04-01T12:13:04.357Z,37.48
2019-04-01T12:17:09.231Z,34.23
2019-04-01T12:21:14.070Z,36.23
2019-04-01T12:25:18.844Z,32.13
2019-04-01T12:29:23.585Z,33.58
2019-04-01T12:33:28.414Z,30.00
2019-04-01T12:37:33.290Z,30.88
2019-04-01T12:41:38.184Z,34.30
2019-04-01T12:45:43.038Z,31.37
2019-04-01T12:49:47.885Z,28.02
2019-04-01T12:53:52.848Z,27.40
2019-04-01T12:57:57.667Z,29.48
2019-04-01T13:02:02.558Z,30.35
2019-04-01T13:06:07.306Z,27.58
2019-04-01T13:10:12.384Z,33.08
2019-04-01T13:14:17.280Z,26.52
2019-04-01T13:18:22.019Z,29.12
2019-04-01T13:22:26.846Z,25.82
2019-04-01T13:26:31.576Z,24.37
2019-04-01T13:30:36.848Z,28.27
2019-04-01T13:34:41.676Z,28.98
2019-04-01T13:38:46.431Z,27.40
2019-04-01T13:42:51.220Z,30.48
2019-04-01T13:46:56.126Z,25.35
2019-04-01T13:51:01.341Z,25.68
2019-04-01T13:55:11.079Z,23.62
2019-04-01T13:59:17.484Z,25.55
2019-04-01T14:03:22.397Z,25.45
2019-04-01T14:07:27.228Z,21.12
2019-04-01T14:11:31.968Z,21.40
2019-04-01T14:15:36.761Z,26.05
2019-04-01T14:19:41.668Z,22.40
2019-04-01T14:23:46.960Z,20.97
2019-04-01T14:27:52.080Z,21.97
2019-04-01T14:31:56.972Z,22.58
2019-04-01T14:36:01.688Z,24.55
2019-04-01T14:40:08.600Z,27.95
2019-04-01T14:44:14.005Z,22.30
2019-04-01T14:48:18.777Z,22.77
2019-04-01T14:52:32.132Z,20.82
2019-04-01T14:56:30.443Z,21.17
2019-04-01T15:00:35.336Z,18.98
2019-04-01T15:04:40.154Z,23.02
2019-04-01T15:08:44.916Z,19.48
2019-04-01T15:13:04.091Z,20.08
2019-04-01T15:16:56.260Z,18.05
2019-04-01T15:21:01.462Z,20.65
2019-04-01T15:25:06.863Z,19.73
2019-04-01T15:29:11.669Z,23.73
2019-04-01T15:33:16.559Z,23.75
2019-04-01T15:37:22.372Z,21.77
2019-04-01T15:41:27.751Z,20.82
2019-04-01T15:45:32.860Z,19.85
2019-04-01T15:49:37.611Z,21.73
2019-04-01T15:53:42.440Z,19.98
2019-04-01T15:57:47.329Z,21.82
2019-04-01T16:01:52.214Z,21.10
2019-04-01T16:05:56.956Z,19.80
2019-04-01T16:10:01.749Z,18.25
2019-04-01T16:14:07.040Z,22.50
2019-04-01T16:18:11.935Z,22.87
2019-04-01T16:22:16.752Z,19.75
2019-04-01T16:26:21.612Z,22.02
2019-04-01T16:30:27.224Z,21.55
2019-04-01T16:34:32.844Z,20.12
2019-04-01T16:38:38.917Z,19.73
2019-04-01T16:42:43.723Z,19.40
2019-04-01T16:46:48.609Z,19.37
2019-04-01T16:50:53.425Z,18.27
2019-04-01T16:55:00.129Z,21.07
2019-04-01T16:59:04.940Z,18.90
2019-04-01T17:03:13.095Z,20.80
2019-04-01T17:07:19.448Z,25.17
2019-04-01T17:11:22.907Z,21.77
2019-04-01T17:15:30.211Z,22.32
2019-04-01T17:19:38.219Z,21.57
2019-04-01T17:23:43.124Z,22.75
2019-04-01T17:27:49.198Z,20.95
2019-04-01T17:31:53.913Z,21.87
2019-04-01T17:35:58.708Z,22.13
2019-04-01T17:40:03.651Z,21.42
2019-04-01T17:44:08.556Z,20.82
2019-04-01T17:48:13.454Z,24.52
2019-04-01T17:52:18.337Z,23.55
2019-04-01T17:56:23.411Z,24.55
2019-04-01T18:00:29.177Z,23.27
2019-04-01T18:04:36.109Z,25.48
2019-04-01T18:08:40.868Z,22.87
2019-04-01T18:12:46.007Z,26.35
2019-04-01T18:16:50.838Z,24.72
2019-04-01T18:20:55.571Z,25.80
2019-04-01T18:25:00.389Z,21.70
2019-04-01T18:29:05.273Z,25.05
2019-04-01T18:33:10.114Z,28.75
2019-04-01T18:37:16.609Z,26.75
2019-04-01T18:41:21.809Z,31.93
2019-04-01T18:45:26.624Z,27.70
2019-04-01T18:49:31.413Z,30.02
2019-04-01T18:53:36.621Z,25.30
2019-04-01T18:57:41.798Z,26.93
2019-04-01T19:01:46.755Z,30.20
2019-04-01T19:05:51.674Z,29.25
2019-04-01T19:10:06.027Z,27.25
2019-04-01T19:14:04.419Z,45.28
2019-04-01T19:18:11.123Z,32.58
2019-04-01T19:22:16.361Z,37.20
2019-04-01T19:26:21.374Z,30.55
2019-04-01T19:30:26.556Z,38.02
2019-04-01T19:34:31.772Z,34.03
2019-04-01T19:38:36.633Z,31.85
2019-04-01T19:42:41.968Z,26.70
2019-04-01T19:46:46.772Z,26.15
2019-04-01T19:50:51.504Z,27.25
2019-04-01T19:54:56.325Z,31.20
2019-04-01T19:59:01.233Z,28.20
2019-04-01T20:03:06.244Z,26.95
2019-04-01T20:07:10.979Z,30.60
2019-04-01T20:11:15.868Z,27.55
2019-04-01T20:15:20.959Z,30.45
2019-04-01T20:19:25.888Z,30.62
2019-04-01T20:23:30.776Z,27.45
2019-04-01T20:27:35.608Z,27.25
2019-04-01T20:31:40.768Z,23.75
2019-04-01T20:35:46.724Z,25.80
2019-04-01T20:39:51.578Z,25.90
2019-04-01T20:43:56.687Z,27.15
2019-04-01T20:48:01.528Z,25.30
2019-04-01T20:52:09.493Z,26.35
2019-04-01T20:56:14.368Z,29.32
2019-04-01T21:00:19.825Z,24.47
2019-04-01T21:04:24.735Z,23.90
2019-04-01T21:08:29.628Z,27.02
2019-04-01T21:12:34.902Z,28.15
2019-04-01T21:16:39.730Z,30.05
2019-04-01T21:20:44.556Z,25.70
2019-04-01T21:24:49.760Z,22.05
2019-04-01T21:28:54.629Z,23.25
2019-04-01T21:32:59.885Z,25.62
2019-04-01T21:37:06.082Z,27.10
2019-04-01T21:41:11.517Z,23.65
2019-04-01T21:45:17.180Z,25.52
2019-04-01T21:49:22.172Z,29.23
2019-04-01T21:53:27.247Z,26.02
2019-04-01T21:57:32.151Z,24.50
2019-04-01T22:01:37.985Z,25.50
2019-04-01T22:05:43.425Z,26.80
2019-04-01T22:09:48.832Z,24.70
2019-04-01T22:13:55.135Z,27.13
2019-04-01T22:18:00.814Z,29.00
2019-04-01T22:22:08.173Z,24.30
2019-04-01T22:26:13.975Z,25.37
2019-04-01T22:30:18.917Z,27.45
2019-04-01T22:34:24.041Z,27.02
2019-04-01T22:38:30.022Z,24.80
2019-04-01T22:42:35.005Z,23.52
2019-04-01T22:46:39.920Z,29.72
2019-04-01T22:50:45.096Z,25.08
2019-04-01T22:54:50.020Z,28.65
2019-04-01T22:58:55.146Z,25.48
2019-04-01T23:03:01.748Z,23.52
2019-04-01T23:07:06.563Z,25.00
2019-04-01T23:11:11.516Z,26.93
2019-04-01T23:15:17.003Z,28.87
2019-04-01T23:19:21.762Z,26.55
2019-04-01T23:23:27.278Z,26.97
2019-04-01T23:27:33.073Z,28.57
2019-04-01T23:31:38.529Z,25.35
2019-04-01T23:35:43.708Z,26.95
2019-04-01T23:39:48.562Z,26.40
2019-04-01T23:43:54.195Z,28.87
2019-04-01T23:48:00.359Z,29.12
2019-04-01T23:52:05.471Z,27.32
2019-04-01T23:56:11.052Z,25.02
